Time;durP1;ratioP1;P1;durP2;ratioP2;P2;SDS_P1;SDS_P2;PMS_P1;PMS_P2;Temp;Humidity;BMP_temperature;BMP_pressure;BME280_temperature;BME280_humidity;BME280_pressure;Samples;Min_cycle;Max_cycle;Signal;HPM_P1;HPM_P2
2022/08/17 00:00:55;;;;;;;8.40;7.70;;;;;;;;;;5074358;28;20446;-77
2022/08/17 00:03:23;;;;;;;9.33;8.07;;;;;;;;;;5073892;28;20441;-77
2022/08/17 00:05:52;;;;;;;8.90;8.20;;;;;;;;;;5073495;28;20518;-77
2022/08/17 00:08:20;;;;;;;8.23;7.60;;;;;;;;;;5073502;28;20456;-78
2022/08/17 00:10:49;;;;;;;8.87;7.97;;;;;;;;;;5083615;28;20443;-77
2022/08/17 00:13:17;;;;;;;8.30;7.70;;;;;;;;;;5093657;28;20861;-76
2022/08/17 00:15:44;;;;;;;8.67;7.83;;;;;;;;;;5094165;28;20530;-77
2022/08/17 00:18:12;;;;;;;8.20;7.67;;;;;;;;;;5093779;28;20930;-76
2022/08/17 00:20:39;;;;;;;9.17;8.07;;;;;;;;;;5093847;28;20863;-77
2022/08/17 00:23:06;;;;;;;7.67;7.17;;;;;;;;;;5094060;28;20514;-77
2022/08/17 00:25:34;;;;;;;8.90;8.17;;;;;;;;;;5094099;28;20509;-77
2022/08/17 00:28:02;;;;;;;8.17;7.47;;;;;;;;;;5094091;28;20854;-77
2022/08/17 00:30:30;;;;;;;9.80;8.50;;;;;;;;;;5094063;28;20543;-76
2022/08/17 00:32:57;;;;;;;9.07;8.37;;;;;;;;;;5093248;28;20907;-77
2022/08/17 00:35:26;;;;;;;8.90;8.20;;;;;;;;;;5092719;28;20499;-77
2022/08/17 00:37:54;;;;;;;8.67;7.93;;;;;;;;;;5093728;28;20812;-77
2022/08/17 00:40:21;;;;;;;8.20;7.60;;;;;;;;;;5093856;28;20444;-77
2022/08/17 00:42:49;;;;;;;8.87;8.27;;;;;;;;;;5093459;28;20451;-77
2022/08/17 00:45:19;;;;;;;8.73;8.00;;;;;;;;;;5094048;28;20513;-76
2022/08/17 00:47:46;;;;;;;9.03;8.30;;;;;;;;;;5093463;28;20446;-78
2022/08/17 00:50:14;;;;;;;9.83;8.50;;;;;;;;;;5092942;28;20862;-76
2022/08/17 00:52:44;;;;;;;9.33;8.60;;;;;;;;;;5092739;28;20987;-76
2022/08/17 00:55:11;;;;;;;9.97;9.00;;;;;;;;;;5093346;28;20508;-77
2022/08/17 00:57:40;;;;;;;9.13;8.23;;;;;;;;;;5096121;28;20878;-77
2022/08/17 01:00:10;;;;;;;9.27;8.60;;;;;;;;;;5097070;28;20503;-77
2022/08/17 01:02:41;;;;;;;9.63;8.87;;;;;;;;;;5094645;28;20446;-77
2022/08/17 01:05:10;;;;;;;9.00;8.40;;;;;;;;;;5092872;28;20712;-77
2022/08/17 01:07:38;;;;;;;9.87;9.10;;;;;;;;;;5092636;28;20455;-76
2022/08/17 01:10:06;;;;;;;10.27;9.30;;;;;;;;;;5089237;28;20437;-77
2022/08/17 01:12:34;;;;;;;9.00;8.40;;;;;;;;;;5072134;28;20527;-76
2022/08/17 01:15:01;;;;;;;9.27;8.47;;;;;;;;;;5072017;28;20513;-76
2022/08/17 01:17:28;;;;;;;10.80;9.70;;;;;;;;;;5072584;28;20440;-77
2022/08/17 01:19:57;;;;;;;8.60;8.00;;;;;;;;;;5072406;28;20480;-76
2022/08/17 01:22:25;;;;;;;10.50;9.60;;;;;;;;;;5072230;28;20433;-77
2022/08/17 01:24:53;;;;;;;9.83;9.03;;;;;;;;;;5071861;28;20469;-77
2022/08/17 01:27:21;;;;;;;9.93;9.23;;;;;;;;;;5072142;28;20828;-78
2022/08/17 01:29:50;;;;;;;10.20;8.87;;;;;;;;;;5072188;28;20927;-77
2022/08/17 01:32:18;;;;;;;10.67;9.70;;;;;;;;;;5072202;28;20590;-77
2022/08/17 01:34:45;;;;;;;10.27;9.27;;;;;;;;;;5071994;28;20480;-77
2022/08/17 01:37:13;;;;;;;10.47;9.57;;;;;;;;;;5071933;28;20453;-77
2022/08/17 01:39:43;;;;;;;9.70;8.90;;;;;;;;;;5072028;28;20487;-77
2022/08/17 01:42:13;;;;;;;10.00;9.20;;;;;;;;;;5071811;28;20502;-77
2022/08/17 01:44:40;;;;;;;9.97;9.27;;;;;;;;;;5071635;28;20928;-76
2022/08/17 01:47:07;;;;;;;9.80;9.00;;;;;;;;;;5071368;28;20445;-76
2022/08/17 01:49:34;;;;;;;10.77;10.00;;;;;;;;;;5072255;28;20512;-77
2022/08/17 01:52:06;;;;;;;10.20;9.40;;;;;;;;;;5072239;28;20441;-77
2022/08/17 01:54:33;;;;;;;10.77;9.87;;;;;;;;;;5071446;28;20527;-78
2022/08/17 01:57:01;;;;;;;9.43;8.63;;;;;;;;;;5071886;28;20498;-77
2022/08/17 01:59:28;;;;;;;9.73;8.93;;;;;;;;;;5072245;28;20445;-77
2022/08/17 02:01:55;;;;;;;10.13;9.33;;;;;;;;;;5071950;28;20494;-77
2022/08/17 02:04:22;;;;;;;9.67;8.77;;;;;;;;;;5072075;28;20856;-76
2022/08/17 02:06:49;;;;;;;10.00;9.20;;;;;;;;;;5072128;28;20468;-77
2022/08/17 02:09:16;;;;;;;10.00;9.30;;;;;;;;;;5072656;28;20452;-76
2022/08/17 02:11:43;;;;;;;9.50;8.80;;;;;;;;;;5091046;28;20440;-77
2022/08/17 02:14:12;;;;;;;9.80;8.80;;;;;;;;;;5094196;28;20505;-77
2022/08/17 02:16:40;;;;;;;9.97;9.10;;;;;;;;;;5095708;28;20883;-77
2022/08/17 02:19:08;;;;;;;9.97;9.17;;;;;;;;;;5092473;28;20436;-77
2022/08/17 02:21:36;;;;;;;8.23;7.60;;;;;;;;;;5091947;28;20444;-77
2022/08/17 02:24:04;;;;;;;9.83;9.13;;;;;;;;;;5091688;28;20444;-77
2022/08/17 02:26:31;;;;;;;9.47;8.60;;;;;;;;;;5091637;28;20471;-78
2022/08/17 02:28:58;;;;;;;8.93;8.13;;;;;;;;;;5091893;28;20452;-77
2022/08/17 02:31:26;;;;;;;9.13;8.13;;;;;;;;;;5092955;28;20456;-76
2022/08/17 02:33:53;;;;;;;9.07;8.43;;;;;;;;;;5091894;28;20873;-77
2022/08/17 02:36:20;;;;;;;10.20;9.40;;;;;;;;;;5099727;28;20478;-77
2022/08/17 02:38:47;;;;;;;9.37;8.57;;;;;;;;;;5101391;28;20517;-77
2022/08/17 02:41:14;;;;;;;9.13;8.43;;;;;;;;;;5100230;28;20447;-77
2022/08/17 02:43:41;;;;;;;8.97;8.17;;;;;;;;;;5094284;28;20436;-77
2022/08/17 02:46:08;;;;;;;10.40;9.07;;;;;;;;;;5093570;28;20505;-77
2022/08/17 02:48:37;;;;;;;9.03;8.37;;;;;;;;;;5094983;28;20496;-76
2022/08/17 02:51:04;;;;;;;9.57;8.77;;;;;;;;;;5094252;28;20452;-76
2022/08/17 02:53:31;;;;;;;9.37;8.77;;;;;;;;;;5091120;28;20505;-77
2022/08/17 02:55:58;;;;;;;9.20;8.60;;;;;;;;;;5091544;28;20467;-77
2022/08/17 02:58:25;;;;;;;9.97;9.23;;;;;;;;;;5094172;28;20775;-77
2022/08/17 03:00:52;;;;;;;9.43;8.63;;;;;;;;;;5095191;28;20465;-78
2022/08/17 03:03:19;;;;;;;9.67;8.87;;;;;;;;;;5094598;28;20432;-77
2022/08/17 03:05:50;;;;;;;8.53;7.83;;;;;;;;;;5095394;28;20467;-77
2022/08/17 03:08:17;;;;;;;10.20;9.30;;;;;;;;;;5094906;28;20477;-77
2022/08/17 03:10:44;;;;;;;10.23;8.40;;;;;;;;;;5086192;28;20449;-76
2022/08/17 03:13:13;;;;;;;10.20;9.10;;;;;;;;;;5083488;28;20478;-77
2022/08/17 03:15:43;;;;;;;9.60;8.80;;;;;;;;;;5095527;28;20554;-77
2022/08/17 03:18:11;;;;;;;9.93;9.00;;;;;;;;;;5089067;28;20435;-77
2022/08/17 03:20:38;;;;;;;9.63;8.90;;;;;;;;;;5095289;28;20492;-76
2022/08/17 03:23:06;;;;;;;9.73;8.90;;;;;;;;;;5091825;28;20448;-77
2022/08/17 03:25:34;;;;;;;9.70;8.90;;;;;;;;;;5094656;28;20970;-77
2022/08/17 03:28:01;;;;;;;9.87;8.97;;;;;;;;;;5095540;28;20448;-77
2022/08/17 03:30:28;;;;;;;9.57;8.87;;;;;;;;;;5095392;28;20448;-78
2022/08/17 03:32:56;;;;;;;9.27;8.57;;;;;;;;;;5095378;28;20480;-76
2022/08/17 03:35:24;;;;;;;9.80;9.00;;;;;;;;;;5099050;28;20456;-76
2022/08/17 03:37:52;;;;;;;11.30;10.40;;;;;;;;;;5103943;28;20444;-76
2022/08/17 03:40:20;;;;;;;11.20;10.20;;;;;;;;;;5107438;28;20435;-77
2022/08/17 03:42:47;;;;;;;10.23;9.33;;;;;;;;;;5105286;28;20454;-77
2022/08/17 03:45:16;;;;;;;11.13;10.00;;;;;;;;;;5105186;28;20470;-77
2022/08/17 03:58:46;;;;;;;10.33;9.43;;;;;;;;;;5086433;28;20434;-77
2022/08/17 04:01:13;;;;;;;10.93;9.93;;;;;;;;;;5097215;28;20462;-77
2022/08/17 04:03:40;;;;;;;11.40;10.30;;;;;;;;;;5095852;28;20469;-77
2022/08/17 04:06:08;;;;;;;10.60;9.70;;;;;;;;;;5096700;28;20467;-77
2022/08/17 04:08:35;;;;;;;10.10;9.20;;;;;;;;;;5094588;28;20447;-77
2022/08/17 04:11:04;;;;;;;9.97;9.20;;;;;;;;;;5094426;28;20427;-76
2022/08/17 04:13:31;;;;;;;11.27;10.07;;;;;;;;;;5094255;28;20543;-77
2022/08/17 04:15:58;;;;;;;10.03;9.23;;;;;;;;;;5094340;28;20879;-77
2022/08/17 04:18:25;;;;;;;10.57;9.77;;;;;;;;;;5094257;28;20472;-76
2022/08/17 04:20:52;;;;;;;10.43;9.63;;;;;;;;;;5094029;28;20436;-77
2022/08/17 04:23:19;;;;;;;10.90;9.97;;;;;;;;;;5090419;28;20810;-77
2022/08/17 04:25:48;;;;;;;10.30;9.50;;;;;;;;;;5093641;28;20802;-76
2022/08/17 04:28:18;;;;;;;11.70;10.70;;;;;;;;;;5093861;28;20903;-76
2022/08/17 04:30:45;;;;;;;9.87;8.97;;;;;;;;;;5093875;28;20448;-76
2022/08/17 04:33:13;;;;;;;11.17;10.10;;;;;;;;;;5093608;28;20480;-77
2022/08/17 04:35:42;;;;;;;10.10;9.40;;;;;;;;;;5093874;28;20459;-76
2022/08/17 04:38:10;;;;;;;10.70;9.70;;;;;;;;;;5095536;28;20432;-76
2022/08/17 04:43:25;;;;;;;12.17;11.07;;;;;;;;;;5095285;28;20431;-77
2022/08/17 04:45:53;;;;;;;11.77;10.57;;;;;;;;;;5096072;28;20471;-77
2022/08/17 04:48:20;;;;;;;11.03;9.60;;;;;;;;;;5100414;28;20652;-76
2022/08/17 04:50:49;;;;;;;11.60;10.73;;;;;;;;;;5107363;28;20475;-77
2022/08/17 04:53:16;;;;;;;14.53;10.60;;;;;;;;;;5109604;28;20479;-76
2022/08/17 04:55:44;;;;;;;11.17;10.27;;;;;;;;;;5107416;28;20452;-76
2022/08/17 04:58:11;;;;;;;15.03;13.63;;;;;;;;;;5109546;28;20443;-77
2022/08/17 05:00:40;;;;;;;13.60;12.50;;;;;;;;;;5098306;28;20462;-77
2022/08/17 05:03:07;;;;;;;17.93;13.43;;;;;;;;;;5094188;28;20436;-76
2022/08/17 05:05:36;;;;;;;13.53;12.10;;;;;;;;;;5094048;28;20463;-77
2022/08/17 05:08:04;;;;;;;13.03;11.63;;;;;;;;;;5093986;28;20480;-77
2022/08/17 05:10:34;;;;;;;13.13;11.90;;;;;;;;;;5093923;28;20444;-76
2022/08/17 05:13:01;;;;;;;11.87;10.77;;;;;;;;;;5093913;28;20439;-78
2022/08/17 05:15:29;;;;;;;13.20;11.90;;;;;;;;;;5093059;28;20468;-77
2022/08/17 05:17:58;;;;;;;12.30;11.20;;;;;;;;;;5091776;28;20443;-76
2022/08/17 05:20:25;;;;;;;13.70;11.57;;;;;;;;;;5090703;28;20474;-77
2022/08/17 05:22:53;;;;;;;12.70;11.70;;;;;;;;;;5097143;28;20539;-77
2022/08/17 05:25:20;;;;;;;13.10;11.97;;;;;;;;;;5097031;28;20451;-77
2022/08/17 05:27:47;;;;;;;13.53;12.37;;;;;;;;;;5093219;28;20513;-76
2022/08/17 05:30:16;;;;;;;14.10;13.00;;;;;;;;;;5093952;28;20989;-78
2022/08/17 05:32:50;;;;;;;12.97;11.97;;;;;;;;;;5092696;28;20496;-77
2022/08/17 05:35:19;;;;;;;14.93;12.07;;;;;;;;;;5093712;28;20487;-76
2022/08/17 05:37:46;;;;;;;13.90;12.50;;;;;;;;;;5093140;28;20443;-77
2022/08/17 05:40:13;;;;;;;14.10;12.80;;;;;;;;;;5093452;28;20454;-77
2022/08/17 05:42:40;;;;;;;15.33;13.17;;;;;;;;;;5094680;28;20447;-77
2022/08/17 05:45:08;;;;;;;17.87;11.80;;;;;;;;;;5096773;28;20482;-78
2022/08/17 05:47:35;;;;;;;13.60;12.23;;;;;;;;;;5096490;28;20443;-76
2022/08/17 05:50:02;;;;;;;13.73;12.47;;;;;;;;;;5093380;28;20443;-76
2022/08/17 05:52:37;;;;;;;13.60;12.20;;;;;;;;;;5093386;28;20479;-77
2022/08/17 05:55:10;;;;;;;13.77;12.43;;;;;;;;;;5093294;28;20487;-77
2022/08/17 05:57:42;;;;;;;13.97;12.77;;;;;;;;;;5093604;28;20527;-78
2022/08/17 06:00:13;;;;;;;14.60;13.23;;;;;;;;;;5092942;28;20446;-78
2022/08/17 06:02:44;;;;;;;16.70;14.87;;;;;;;;;;5094889;28;20477;-77
2022/08/17 06:05:17;;;;;;;14.30;13.00;;;;;;;;;;5094814;28;20463;-76
2022/08/17 06:07:49;;;;;;;14.20;12.90;;;;;;;;;;5094448;28;20447;-77
2022/08/17 06:10:18;;;;;;;15.07;13.33;;;;;;;;;;5092136;28;20478;-77
2022/08/17 06:12:51;;;;;;;17.33;12.67;;;;;;;;;;5092024;28;20650;-77
2022/08/17 06:15:24;;;;;;;12.80;11.73;;;;;;;;;;5092012;28;20537;-77
2022/08/17 06:17:53;;;;;;;12.03;10.40;;;;;;;;;;5092585;28;20886;-77
2022/08/17 06:20:20;;;;;;;13.00;11.70;;;;;;;;;;5092663;28;20444;-77
2022/08/17 06:22:50;;;;;;;11.40;10.40;;;;;;;;;;5092766;28;20747;-77
2022/08/17 06:25:19;;;;;;;12.63;10.30;;;;;;;;;;5093597;28;20464;-77
2022/08/17 06:27:48;;;;;;;14.67;10.40;;;;;;;;;;5092837;28;20942;-76
2022/08/17 06:30:16;;;;;;;11.53;10.60;;;;;;;;;;5093920;28;20444;-77
2022/08/17 06:32:45;;;;;;;12.13;10.10;;;;;;;;;;5091845;28;20450;-77
2022/08/17 06:35:13;;;;;;;14.93;10.97;;;;;;;;;;5092736;28;20513;-78
2022/08/17 06:37:58;;;;;;;15.30;11.37;;;;;;;;;;5086187;28;20511;-77
2022/08/17 06:40:44;;;;;;;10.67;9.77;;;;;;;;;;5079083;28;20539;-77
2022/08/17 06:43:16;;;;;;;10.53;9.57;;;;;;;;;;5085554;28;20478;-77
2022/08/17 06:45:47;;;;;;;12.87;11.67;;;;;;;;;;5092038;28;20464;-77
2022/08/17 06:48:23;;;;;;;12.27;10.40;;;;;;;;;;5092449;28;20440;-77
2022/08/17 06:50:53;;;;;;;12.10;10.97;;;;;;;;;;5092445;28;20538;-76
2022/08/17 06:53:23;;;;;;;14.40;11.00;;;;;;;;;;5091437;28;20780;-77
2022/08/17 06:55:55;;;;;;;13.27;10.50;;;;;;;;;;5091813;28;20475;-78
2022/08/17 06:58:24;;;;;;;11.40;10.40;;;;;;;;;;5091682;28;20501;-77
2022/08/17 07:00:57;;;;;;;13.20;10.07;;;;;;;;;;5091911;28;20492;-76
2022/08/17 07:03:28;;;;;;;10.47;9.47;;;;;;;;;;5091722;28;20448;-76
2022/08/17 07:05:58;;;;;;;14.67;11.47;;;;;;;;;;5091151;28;20455;-77
2022/08/17 07:08:32;;;;;;;10.70;9.63;;;;;;;;;;5091316;28;20451;-78
2022/08/17 07:11:02;;;;;;;9.80;9.03;;;;;;;;;;5091475;28;20874;-77
2022/08/17 07:13:38;;;;;;;9.80;9.00;;;;;;;;;;5091243;28;20765;-77
2022/08/17 07:16:13;;;;;;;10.63;9.60;;;;;;;;;;5091263;28;20456;-77
2022/08/17 07:18:40;;;;;;;9.43;8.63;;;;;;;;;;5091792;28;20474;-76
2022/08/17 07:21:10;;;;;;;10.23;9.20;;;;;;;;;;5091670;28;20494;-77
2022/08/17 07:23:45;;;;;;;11.90;9.00;;;;;;;;;;5090883;28;20927;-77
2022/08/17 07:26:12;;;;;;;10.73;9.67;;;;;;;;;;5091722;28;20462;-78
2022/08/17 07:28:39;;;;;;;10.27;8.87;;;;;;;;;;5091186;28;20440;-77
2022/08/17 07:31:07;;;;;;;8.73;8.00;;;;;;;;;;5091024;28;20443;-77
2022/08/17 07:33:38;;;;;;;13.10;8.43;;;;;;;;;;5091081;28;20446;-77
2022/08/17 07:36:05;;;;;;;9.27;8.37;;;;;;;;;;5091236;28;20530;-77
2022/08/17 07:38:34;;;;;;;10.57;9.57;;;;;;;;;;5091194;28;20444;-78
2022/08/17 07:41:05;;;;;;;10.30;8.97;;;;;;;;;;5091481;28;20443;-77
2022/08/17 07:43:32;;;;;;;8.90;8.20;;;;;;;;;;5091540;28;20436;-77
2022/08/17 07:48:58;;;;;;;9.07;8.47;;;;;;;;;;5094883;28;20435;-77
2022/08/17 07:51:27;;;;;;;8.60;7.90;;;;;;;;;;5094810;28;20454;-78
2022/08/17 07:53:55;;;;;;;9.33;8.50;;;;;;;;;;5094797;28;20462;-78
2022/08/17 07:56:35;;;;;;;9.07;8.30;;;;;;;;;;5095081;28;20513;-77
2022/08/17 07:59:13;;;;;;;11.43;8.80;;;;;;;;;;5094519;28;20523;-76
2022/08/17 08:01:41;;;;;;;11.10;8.20;;;;;;;;;;5095545;28;20439;-77
2022/08/17 08:04:17;;;;;;;10.30;8.40;;;;;;;;;;5094359;28;20920;-76
2022/08/17 08:06:48;;;;;;;8.83;8.00;;;;;;;;;;5094599;28;20524;-77
2022/08/17 08:09:28;;;;;;;8.63;7.93;;;;;;;;;;5094883;28;20447;-77
2022/08/17 08:11:59;;;;;;;8.50;7.70;;;;;;;;;;5076177;28;20505;-77
2022/08/17 08:14:28;;;;;;;9.03;8.07;;;;;;;;;;5073816;28;20512;-77
2022/08/17 08:16:59;;;;;;;8.57;7.77;;;;;;;;;;5074243;28;20557;-79
2022/08/17 08:19:27;;;;;;;9.87;7.83;;;;;;;;;;5074449;28;20448;-77
2022/08/17 08:21:58;;;;;;;8.40;7.80;;;;;;;;;;5074021;28;20441;-77
2022/08/17 08:24:42;;;;;;;10.13;7.67;;;;;;;;;;5074882;28;20614;-77
2022/08/17 08:27:21;;;;;;;9.27;8.43;;;;;;;;;;5074483;28;20890;-77
2022/08/17 08:29:53;;;;;;;8.20;7.50;;;;;;;;;;5079508;28;20790;-77
2022/08/17 08:32:22;;;;;;;9.10;8.40;;;;;;;;;;5093249;28;20429;-78
2022/08/17 08:34:53;;;;;;;9.00;8.10;;;;;;;;;;5095210;28;20479;-78
2022/08/17 08:37:29;;;;;;;8.60;7.80;;;;;;;;;;5094344;28;20948;-77
2022/08/17 08:39:58;;;;;;;8.57;7.57;;;;;;;;;;5094798;28;20833;-77
2022/08/17 08:42:31;;;;;;;9.70;7.13;;;;;;;;;;5094146;28;20510;-78
2022/08/17 08:45:04;;;;;;;8.50;7.63;;;;;;;;;;5095380;28;20895;-78
2022/08/17 08:47:39;;;;;;;8.00;7.30;;;;;;;;;;5096278;28;20447;-77
2022/08/17 08:50:17;;;;;;;8.27;7.60;;;;;;;;;;5096205;28;20460;-77
2022/08/17 08:52:52;;;;;;;8.80;7.50;;;;;;;;;;5098746;28;20439;-77
2022/08/17 08:55:21;;;;;;;7.87;7.13;;;;;;;;;;5097567;28;20533;-78
2022/08/17 08:57:53;;;;;;;9.60;7.30;;;;;;;;;;5086139;28;20518;-77
2022/08/17 09:00:21;;;;;;;8.97;7.10;;;;;;;;;;5087739;28;20439;-77
2022/08/17 09:03:03;;;;;;;8.40;7.80;;;;;;;;;;5091885;28;20482;-77
2022/08/17 09:05:35;;;;;;;8.43;7.63;;;;;;;;;;5092955;28;21044;-78
2022/08/17 09:08:10;;;;;;;9.03;7.60;;;;;;;;;;5092713;28;20508;-76
2022/08/17 09:10:41;;;;;;;8.77;7.97;;;;;;;;;;5085759;28;20440;-77
2022/08/17 09:13:15;;;;;;;9.50;7.70;;;;;;;;;;5092729;28;20432;-78
2022/08/17 09:15:44;;;;;;;9.20;8.30;;;;;;;;;;5092751;28;20572;-77
2022/08/17 09:18:20;;;;;;;8.83;7.93;;;;;;;;;;5092705;28;20444;-77
2022/08/17 09:20:50;;;;;;;8.97;8.03;;;;;;;;;;5093255;28;20442;-78
2022/08/17 09:23:23;;;;;;;12.23;7.90;;;;;;;;;;5093253;28;20436;-77
2022/08/17 09:25:56;;;;;;;11.20;8.23;;;;;;;;;;5092600;28;20456;-77
2022/08/17 09:28:29;;;;;;;8.50;7.63;;;;;;;;;;5092246;28;20455;-77
2022/08/17 09:31:00;;;;;;;10.03;8.50;;;;;;;;;;5093173;28;20451;-77
2022/08/17 09:33:27;;;;;;;9.83;7.83;;;;;;;;;;5092746;28;20448;-78
2022/08/17 09:35:57;;;;;;;10.00;8.40;;;;;;;;;;5092523;28;20503;-77
2022/08/17 09:38:27;;;;;;;9.73;8.73;;;;;;;;;;5092024;28;20502;-79
2022/08/17 09:40:57;;;;;;;12.17;8.43;;;;;;;;;;5092790;28;20440;-77
2022/08/17 09:43:30;;;;;;;12.93;7.97;;;;;;;;;;5093342;28;20432;-78
2022/08/17 09:45:59;;;;;;;7.90;7.07;;;;;;;;;;5093212;28;20498;-77
2022/08/17 09:48:27;;;;;;;8.13;7.53;;;;;;;;;;5093721;28;20436;-78
2022/08/17 09:51:00;;;;;;;11.13;8.73;;;;;;;;;;5093094;28;20440;-78
2022/08/17 09:53:27;;;;;;;8.93;8.23;;;;;;;;;;5093422;28;20440;-78
2022/08/17 09:56:00;;;;;;;11.73;8.70;;;;;;;;;;5093046;28;20482;-79
2022/08/17 09:58:36;;;;;;;11.03;8.23;;;;;;;;;;5093905;28;20440;-78
2022/08/17 10:01:06;;;;;;;9.17;8.27;;;;;;;;;;5093395;28;20466;-77
2022/08/17 10:03:58;;;;;;;8.77;8.17;;;;;;;;;;5094405;28;20447;-80
2022/08/17 10:06:28;;;;;;;9.70;8.77;;;;;;;;;;5093268;28;20974;-78
2022/08/17 10:09:05;;;;;;;8.10;7.30;;;;;;;;;;5093775;28;20493;-78
2022/08/17 10:14:25;;;;;;;6.63;6.03;;;;;;;;;;5091974;28;20412;-76
2022/08/17 10:16:55;;;;;;;5.47;5.17;;;;;;;;;;5092168;28;20537;-77
2022/08/17 10:19:24;;;;;;;7.10;6.60;;;;;;;;;;5092435;28;20447;-77
2022/08/17 10:27:29;;;;;;;7.23;6.57;;;;;;;;;;5091191;28;20415;-77
2022/08/17 10:30:02;;;;;;;7.73;7.00;;;;;;;;;;5083976;28;20843;-77
2022/08/17 10:32:32;;;;;;;6.97;6.53;;;;;;;;;;5080839;28;20540;-77
2022/08/17 10:35:14;;;;;;;6.93;6.53;;;;;;;;;;5102477;28;20470;-78
2022/08/17 10:38:00;;;;;;;7.37;6.77;;;;;;;;;;5100044;28;20455;-78
2022/08/17 10:40:33;;;;;;;7.17;6.57;;;;;;;;;;5087610;28;20525;-78
2022/08/17 10:43:01;;;;;;;6.80;6.20;;;;;;;;;;5091604;28;20479;-78
2022/08/17 10:45:32;;;;;;;7.37;6.67;;;;;;;;;;5090342;28;20533;-78
2022/08/17 10:48:02;;;;;;;6.30;5.80;;;;;;;;;;5072396;28;20463;-78
2022/08/17 10:50:48;;;;;;;7.10;6.40;;;;;;;;;;5087303;28;20440;-78
2022/08/17 10:53:30;;;;;;;6.40;5.80;;;;;;;;;;5077708;28;20454;-79
2022/08/17 10:56:12;;;;;;;6.40;6.00;;;;;;;;;;5082963;28;20894;-77
2022/08/17 10:58:45;;;;;;;6.13;5.63;;;;;;;;;;5092284;28;20440;-78
2022/08/17 11:01:14;;;;;;;6.40;6.00;;;;;;;;;;5092189;28;20496;-77
2022/08/17 11:03:51;;;;;;;6.27;5.87;;;;;;;;;;5092495;28;20851;-77
2022/08/17 11:06:21;;;;;;;6.27;5.77;;;;;;;;;;5092829;28;20461;-77
2022/08/17 11:08:58;;;;;;;5.43;5.13;;;;;;;;;;5092125;28;20508;-77
2022/08/17 11:11:46;;;;;;;6.23;5.73;;;;;;;;;;5092180;28;20423;-77
2022/08/17 11:14:27;;;;;;;6.60;6.00;;;;;;;;;;5087110;28;20448;-78
2022/08/17 11:17:05;;;;;;;6.77;6.17;;;;;;;;;;5091521;28;20987;-78
2022/08/17 11:19:52;;;;;;;7.30;6.63;;;;;;;;;;5094635;28;20431;-77
2022/08/17 11:22:37;;;;;;;7.00;6.30;;;;;;;;;;5095231;28;20496;-78
2022/08/17 11:25:13;;;;;;;8.03;6.83;;;;;;;;;;5064314;28;20467;-77
2022/08/17 11:27:40;;;;;;;6.43;5.87;;;;;;;;;;5077847;28;20444;-77
2022/08/17 11:30:09;;;;;;;6.63;6.10;;;;;;;;;;5098323;28;20439;-77
2022/08/17 11:32:41;;;;;;;6.77;6.17;;;;;;;;;;5096878;28;20497;-77
2022/08/17 11:35:23;;;;;;;7.13;6.33;;;;;;;;;;5097134;28;20947;-77
2022/08/17 11:37:55;;;;;;;6.37;5.87;;;;;;;;;;5095408;28;20448;-77
2022/08/17 11:40:28;;;;;;;6.30;5.73;;;;;;;;;;5098043;28;20427;-77
2022/08/17 11:43:06;;;;;;;6.30;5.70;;;;;;;;;;5096810;28;20435;-78
2022/08/17 11:45:40;;;;;;;6.07;5.50;;;;;;;;;;5094626;28;20867;-77
2022/08/17 11:54:09;;;;;;;6.20;5.60;;;;;;;;;;5094041;28;20558;-77
2022/08/17 11:56:40;;;;;;;6.90;6.40;;;;;;;;;;5094126;28;21036;-77
2022/08/17 11:59:21;;;;;;;6.90;6.30;;;;;;;;;;5095919;28;20808;-77
2022/08/17 12:01:54;;;;;;;6.50;5.90;;;;;;;;;;5095849;28;20466;-77
2022/08/17 12:04:27;;;;;;;7.23;6.57;;;;;;;;;;5098707;28;20515;-77
2022/08/17 12:06:56;;;;;;;6.67;6.17;;;;;;;;;;5094458;28;20517;-77
2022/08/17 12:09:25;;;;;;;6.20;5.60;;;;;;;;;;5094612;28;20443;-78
2022/08/17 12:11:54;;;;;;;6.80;6.27;;;;;;;;;;5094685;28;20522;-77
2022/08/17 12:14:25;;;;;;;6.80;6.33;;;;;;;;;;5094148;28;20440;-76
2022/08/17 12:16:59;;;;;;;6.97;6.27;;;;;;;;;;5094118;28;20996;-76
2022/08/17 12:19:28;;;;;;;6.70;6.23;;;;;;;;;;5094194;28;20439;-78
2022/08/17 12:21:58;;;;;;;6.77;6.17;;;;;;;;;;5094587;28;20439;-77
2022/08/17 12:24:32;;;;;;;6.73;6.23;;;;;;;;;;5093666;28;20458;-77
2022/08/17 12:27:00;;;;;;;6.63;6.27;;;;;;;;;;5093902;28;20442;-77
2022/08/17 12:29:28;;;;;;;6.80;6.30;;;;;;;;;;5093092;28;20473;-76
2022/08/17 12:31:57;;;;;;;8.67;6.70;;;;;;;;;;5093506;28;21194;-76
2022/08/17 12:34:25;;;;;;;6.30;5.80;;;;;;;;;;5093647;28;20456;-77
2022/08/17 12:36:58;;;;;;;7.17;6.57;;;;;;;;;;5093895;28;20889;-76
2022/08/17 12:39:26;;;;;;;5.97;5.53;;;;;;;;;;5093818;28;21128;-77
2022/08/17 12:41:55;;;;;;;7.43;6.73;;;;;;;;;;5091739;28;20987;-78
2022/08/17 12:44:23;;;;;;;6.63;6.13;;;;;;;;;;5092890;28;20951;-77
2022/08/17 12:46:54;;;;;;;6.70;6.07;;;;;;;;;;5093559;28;20452;-77
2022/08/17 12:49:24;;;;;;;6.33;5.83;;;;;;;;;;5093690;28;20899;-77
2022/08/17 12:51:52;;;;;;;6.63;6.07;;;;;;;;;;5094078;28;20448;-77
2022/08/17 12:54:26;;;;;;;6.67;6.17;;;;;;;;;;5093068;28;20451;-78
2022/08/17 12:56:53;;;;;;;6.07;5.57;;;;;;;;;;5093168;28;20526;-77
2022/08/17 12:59:22;;;;;;;6.93;6.43;;;;;;;;;;5093040;28;20475;-76
2022/08/17 13:01:49;;;;;;;6.60;6.03;;;;;;;;;;5093532;28;20443;-77
2022/08/17 13:04:16;;;;;;;7.10;6.40;;;;;;;;;;5092941;28;20455;-77
2022/08/17 13:06:49;;;;;;;6.53;6.13;;;;;;;;;;5093112;28;20467;-76
2022/08/17 13:09:19;;;;;;;6.77;5.93;;;;;;;;;;5087128;28;20475;-78
2022/08/17 13:11:49;;;;;;;6.53;5.77;;;;;;;;;;5091654;28;20447;-77
2022/08/17 13:14:17;;;;;;;9.23;6.03;;;;;;;;;;5091756;28;20493;-77
2022/08/17 13:16:48;;;;;;;7.17;4.70;;;;;;;;;;5091984;28;20570;-77
2022/08/17 13:19:19;;;;;;;5.80;5.40;;;;;;;;;;5091988;28;20531;-77
2022/08/17 13:21:47;;;;;;;5.93;5.53;;;;;;;;;;5092361;28;20443;-76
2022/08/17 13:24:42;;;;;;;6.67;5.57;;;;;;;;;;5092022;28;20480;-77
2022/08/17 13:27:22;;;;;;;5.43;5.03;;;;;;;;;;5092826;28;20428;-77
2022/08/17 13:29:52;;;;;;;6.13;5.20;;;;;;;;;;5092971;28;20445;-77
2022/08/17 13:32:21;;;;;;;5.13;4.77;;;;;;;;;;5091753;28;20452;-77
2022/08/17 13:34:49;;;;;;;5.00;4.70;;;;;;;;;;5090833;28;20479;-76
2022/08/17 13:37:25;;;;;;;5.70;5.10;;;;;;;;;;5091089;28;20487;-76
2022/08/17 13:39:52;;;;;;;5.83;5.33;;;;;;;;;;5091488;28;20443;-77
2022/08/17 13:42:34;;;;;;;4.60;4.40;;;;;;;;;;5091541;28;20447;-77
2022/08/17 13:45:01;;;;;;;5.03;4.73;;;;;;;;;;5091957;28;20460;-77
2022/08/17 13:47:29;;;;;;;5.70;5.20;;;;;;;;;;5091641;28;20440;-76
2022/08/17 13:49:56;;;;;;;5.57;4.63;;;;;;;;;;5091360;28;20480;-76
2022/08/17 13:52:35;;;;;;;5.30;4.87;;;;;;;;;;5091242;28;20463;-76
2022/08/17 13:55:03;;;;;;;5.20;4.20;;;;;;;;;;5091272;28;20464;-77
2022/08/17 13:57:30;;;;;;;4.93;4.63;;;;;;;;;;5091149;28;20464;-76
2022/08/17 14:00:10;;;;;;;4.73;4.43;;;;;;;;;;5091135;28;20928;-76
2022/08/17 14:02:37;;;;;;;4.97;4.57;;;;;;;;;;5090980;28;20869;-76
2022/08/17 14:05:04;;;;;;;4.83;4.53;;;;;;;;;;5092245;28;20521;-77
2022/08/17 14:07:33;;;;;;;5.10;4.80;;;;;;;;;;5092152;28;20452;-77
2022/08/17 14:10:02;;;;;;;4.77;4.37;;;;;;;;;;5091928;28;20462;-77
2022/08/17 14:12:31;;;;;;;4.53;4.23;;;;;;;;;;5091608;28;20955;-77
2022/08/17 14:14:59;;;;;;;5.47;4.53;;;;;;;;;;5090639;28;20838;-77
2022/08/17 14:17:30;;;;;;;4.97;4.67;;;;;;;;;;5090718;28;20467;-77
2022/08/17 14:19:57;;;;;;;4.93;4.30;;;;;;;;;;5091195;28;20450;-77
2022/08/17 14:22:26;;;;;;;5.30;4.90;;;;;;;;;;5090453;28;20928;-77
2022/08/17 14:24:53;;;;;;;4.30;4.10;;;;;;;;;;5085652;28;20497;-78
2022/08/17 14:27:20;;;;;;;4.53;4.17;;;;;;;;;;5086277;28;20441;-77
2022/08/17 14:29:48;;;;;;;5.00;4.50;;;;;;;;;;5090099;28;20564;-77
2022/08/17 14:32:18;;;;;;;5.50;5.03;;;;;;;;;;5083581;28;20443;-77
2022/08/17 14:34:48;;;;;;;5.20;4.80;;;;;;;;;;5082782;28;20444;-78
2022/08/17 14:37:15;;;;;;;4.70;4.40;;;;;;;;;;5090518;28;20486;-77
2022/08/17 14:39:42;;;;;;;4.90;4.50;;;;;;;;;;5090353;28;20482;-77
2022/08/17 14:42:10;;;;;;;4.90;4.50;;;;;;;;;;5090801;28;20447;-76
2022/08/17 14:44:38;;;;;;;5.13;4.63;;;;;;;;;;5090195;28;20486;-76
2022/08/17 14:47:05;;;;;;;4.83;4.53;;;;;;;;;;5092442;28;20435;-76
2022/08/17 14:49:33;;;;;;;5.03;4.70;;;;;;;;;;5093589;28;20871;-76
2022/08/17 14:52:01;;;;;;;4.90;4.30;;;;;;;;;;5091073;28;20489;-77
2022/08/17 14:54:28;;;;;;;4.80;4.50;;;;;;;;;;5093288;28;21002;-75
2022/08/17 14:56:55;;;;;;;4.90;4.60;;;;;;;;;;5094717;28;20511;-75
2022/08/17 14:59:22;;;;;;;6.47;4.20;;;;;;;;;;5094788;28;20439;-75
2022/08/17 15:01:49;;;;;;;4.50;4.20;;;;;;;;;;5094674;28;20487;-76
2022/08/17 15:04:17;;;;;;;4.87;4.50;;;;;;;;;;5094437;28;20887;-76
2022/08/17 15:06:47;;;;;;;4.80;4.50;;;;;;;;;;5094282;28;20916;-77
2022/08/17 15:09:14;;;;;;;4.50;4.20;;;;;;;;;;5096766;28;20935;-77
2022/08/17 15:11:41;;;;;;;4.90;4.60;;;;;;;;;;5096375;28;20485;-78
2022/08/17 15:14:08;;;;;;;6.73;4.63;;;;;;;;;;5095029;28;20432;-77
2022/08/17 15:16:35;;;;;;;4.57;4.27;;;;;;;;;;5093987;28;20974;-76
2022/08/17 15:19:02;;;;;;;4.77;4.47;;;;;;;;;;5094288;28;20932;-77
2022/08/17 15:21:29;;;;;;;4.70;4.40;;;;;;;;;;5094574;28;20432;-77
2022/08/17 15:23:58;;;;;;;4.20;3.80;;;;;;;;;;5094051;28;20450;-76